createdAt,value
2022-10-13T00:01:00.076Z,6.90
2022-10-13T00:03:27.024Z,6.90
2022-10-13T00:05:53.948Z,7.00
2022-10-13T00:08:22.093Z,7.00
2022-10-13T00:10:50.948Z,7.00
2022-10-13T00:13:19.456Z,7.10
2022-10-13T00:15:48.020Z,7.10
2022-10-13T00:18:16.170Z,7.20
2022-10-13T00:20:49.641Z,7.30
2022-10-13T00:23:17.327Z,7.20
2022-10-13T00:25:46.680Z,7.20
2022-10-13T00:28:15.420Z,7.30
2022-10-13T00:30:42.835Z,7.30
2022-10-13T00:33:11.329Z,7.30
2022-10-13T00:35:47.289Z,7.40
2022-10-13T00:38:15.630Z,7.40
2022-10-13T00:40:55.073Z,7.40
2022-10-13T00:43:46.962Z,7.40
2022-10-13T00:46:15.358Z,7.30
2022-10-13T00:48:43.129Z,7.30
2022-10-13T00:51:13.149Z,7.30
2022-10-13T00:53:40.839Z,7.20
2022-10-13T00:56:11.337Z,7.20
2022-10-13T00:58:40.682Z,7.10
2022-10-13T01:01:08.368Z,7.10
2022-10-13T01:03:36.292Z,7.10
2022-10-13T01:06:06.074Z,7.10
2022-10-13T01:08:33.772Z,7.00
2022-10-13T01:11:47.685Z,7.00
2022-10-13T01:14:35.588Z,7.00
2022-10-13T01:17:45.106Z,7.00
2022-10-13T01:20:34.028Z,6.90
2022-10-13T01:23:12.832Z,7.00
2022-10-13T01:25:48.390Z,7.00
2022-10-13T01:28:33.319Z,7.00
2022-10-13T01:31:34.674Z,7.00
2022-10-13T01:34:11.888Z,7.00
2022-10-13T01:37:57.149Z,7.00
2022-10-13T01:40:40.734Z,7.00
2022-10-13T01:43:16.935Z,7.10
2022-10-13T01:46:13.900Z,7.10
2022-10-13T01:48:45.033Z,7.20
2022-10-13T01:51:16.944Z,7.20
2022-10-13T01:53:46.599Z,7.20
2022-10-13T01:56:13.847Z,7.20
2022-10-13T01:58:41.228Z,7.20
2022-10-13T02:01:32.650Z,7.20
2022-10-13T02:04:35.089Z,7.20
2022-10-13T02:07:19.343Z,7.10
2022-10-13T02:10:22.639Z,7.10
2022-10-13T02:12:57.797Z,7.00
2022-10-13T02:15:59.472Z,6.90
2022-10-13T02:18:32.005Z,6.90
2022-10-13T02:21:00.158Z,6.80
2022-10-13T02:23:27.686Z,6.70
2022-10-13T02:25:57.255Z,6.70
2022-10-13T02:28:24.966Z,6.60
2022-10-13T02:30:51.900Z,6.70
2022-10-13T02:33:19.191Z,6.60
2022-10-13T02:35:46.093Z,6.70
2022-10-13T02:38:12.899Z,6.80
2022-10-13T02:40:39.784Z,6.90
2022-10-13T02:43:06.680Z,7.00
2022-10-13T02:45:33.482Z,7.00
2022-10-13T02:48:00.377Z,7.10
2022-10-13T02:50:27.484Z,7.20
2022-10-13T02:52:54.262Z,7.20
2022-10-13T02:55:21.492Z,7.30
2022-10-13T02:57:48.264Z,7.30
2022-10-13T03:00:16.454Z,7.50
2022-10-13T03:02:43.272Z,7.50
2022-10-13T03:05:11.007Z,7.60
2022-10-13T03:07:38.313Z,7.60
2022-10-13T03:10:06.133Z,7.70
2022-10-13T03:12:32.944Z,7.70
2022-10-13T03:14:59.848Z,7.80
2022-10-13T03:17:27.155Z,7.80
2022-10-13T03:19:54.040Z,7.90
2022-10-13T03:22:21.146Z,7.90
2022-10-13T03:24:48.278Z,7.90
2022-10-13T03:27:15.710Z,7.90
2022-10-13T03:29:42.556Z,7.90
2022-10-13T03:32:09.736Z,7.90
2022-10-13T03:34:36.714Z,7.80
2022-10-13T03:37:03.857Z,7.70
2022-10-13T03:39:30.676Z,7.60
2022-10-13T03:41:57.600Z,7.60
2022-10-13T03:44:24.411Z,7.60
2022-10-13T03:46:52.396Z,7.50
2022-10-13T03:49:19.294Z,7.40
2022-10-13T03:51:46.480Z,7.30
2022-10-13T03:54:14.615Z,7.30
2022-10-13T03:56:42.382Z,7.20
2022-10-13T03:59:12.632Z,7.20
2022-10-13T04:01:40.297Z,7.20
2022-10-13T04:04:09.231Z,7.20
2022-10-13T04:06:36.184Z,7.20
2022-10-13T04:09:03.712Z,7.20
2022-10-13T04:11:30.570Z,7.10
2022-10-13T04:13:58.831Z,7.10
2022-10-13T04:16:29.810Z,7.10
2022-10-13T04:19:03.984Z,7.10
2022-10-13T04:21:34.256Z,7.10
2022-10-13T04:24:02.210Z,7.10
2022-10-13T04:26:33.682Z,7.10
2022-10-13T04:29:03.093Z,7.10
2022-10-13T04:31:30.893Z,7.10
2022-10-13T04:33:58.578Z,7.10
2022-10-13T04:36:26.196Z,7.20
2022-10-13T04:38:54.810Z,7.20
2022-10-13T04:41:22.885Z,7.20
2022-10-13T04:43:51.301Z,7.30
2022-10-13T04:46:25.632Z,7.40
2022-10-13T04:48:52.918Z,7.40
2022-10-13T04:51:23.642Z,7.50
2022-10-13T04:53:56.268Z,7.40
2022-10-13T04:56:24.337Z,7.40
2022-10-13T04:58:51.393Z,7.40
2022-10-13T05:01:22.765Z,7.40
2022-10-13T05:03:55.718Z,7.40
2022-10-13T05:06:26.423Z,7.50
2022-10-13T05:08:53.287Z,7.50
2022-10-13T05:11:20.748Z,7.50
2022-10-13T05:13:48.802Z,7.60
2022-10-13T05:16:18.916Z,7.50
2022-10-13T05:18:45.855Z,7.40
2022-10-13T05:21:19.561Z,7.50
2022-10-13T05:23:46.706Z,7.50
2022-10-13T05:26:18.481Z,7.60
2022-10-13T05:28:46.001Z,7.70
2022-10-13T05:31:22.830Z,7.80
2022-10-13T05:33:51.698Z,7.80
2022-10-13T05:36:26.018Z,7.90
2022-10-13T05:38:55.910Z,8.00
2022-10-13T05:41:24.914Z,8.10
2022-10-13T05:43:57.858Z,8.20
2022-10-13T05:46:25.519Z,8.30
2022-10-13T05:48:52.575Z,8.40
2022-10-13T05:51:31.727Z,8.50
2022-10-13T05:54:10.840Z,8.60
2022-10-13T05:56:43.145Z,8.60
2022-10-13T05:59:13.976Z,8.60
2022-10-13T06:01:42.216Z,8.70
2022-10-13T06:04:17.225Z,8.70
2022-10-13T06:06:44.348Z,8.70
2022-10-13T06:09:11.428Z,8.80
2022-10-13T06:11:38.372Z,8.80
2022-10-13T06:14:05.263Z,8.80
2022-10-13T06:16:32.054Z,8.80
2022-10-13T06:18:58.979Z,8.80
2022-10-13T06:21:25.824Z,8.80
2022-10-13T06:23:52.789Z,8.90
2022-10-13T06:26:19.889Z,9.00
2022-10-13T06:28:50.107Z,9.10
2022-10-13T06:31:17.954Z,9.00
2022-10-13T06:33:45.116Z,8.90
2022-10-13T06:36:11.928Z,8.90
2022-10-13T06:38:38.735Z,8.80
2022-10-13T06:41:06.234Z,8.80
2022-10-13T06:43:39.963Z,8.80
2022-10-13T06:46:07.846Z,8.80
2022-10-13T06:48:35.396Z,8.90
2022-10-13T06:51:13.039Z,8.90
2022-10-13T06:53:40.071Z,9.00
2022-10-13T06:56:07.952Z,8.90
2022-10-13T06:58:36.585Z,8.90
2022-10-13T07:01:05.012Z,8.80
2022-10-13T07:03:32.153Z,8.80
2022-10-13T07:06:04.574Z,8.80
2022-10-13T07:08:32.686Z,8.80
2022-10-13T07:10:59.562Z,8.90
2022-10-13T07:13:26.399Z,9.00
2022-10-13T07:15:53.247Z,9.20
2022-10-13T07:18:20.257Z,9.30
2022-10-13T07:20:47.138Z,9.50
2022-10-13T07:23:14.156Z,9.60
2022-10-13T07:25:41.059Z,9.60
2022-10-13T07:28:07.901Z,9.50
2022-10-13T07:30:34.730Z,9.70
2022-10-13T07:33:02.876Z,9.80
2022-10-13T07:35:31.025Z,9.90
2022-10-13T07:37:58.126Z,10.00
2022-10-13T07:40:25.020Z,10.00
2022-10-13T07:42:51.804Z,9.90
2022-10-13T07:45:18.805Z,10.00
2022-10-13T07:47:45.698Z,10.00
2022-10-13T07:50:12.569Z,10.10
2022-10-13T07:52:39.500Z,10.10
2022-10-13T07:55:07.240Z,10.20
2022-10-13T07:57:34.421Z,10.30
2022-10-13T08:00:01.555Z,10.40
2022-10-13T08:02:30.050Z,10.50
2022-10-13T08:04:56.888Z,10.50
2022-10-13T08:07:23.798Z,10.60
2022-10-13T08:09:50.718Z,10.70
2022-10-13T08:12:17.935Z,10.70
2022-10-13T08:14:45.165Z,10.70
2022-10-13T08:17:12.048Z,10.70
2022-10-13T08:19:38.889Z,10.70
2022-10-13T08:22:09.631Z,10.70
2022-10-13T08:24:37.210Z,10.70
2022-10-13T08:27:04.255Z,10.80
2022-10-13T08:29:31.135Z,10.80
2022-10-13T08:31:58.007Z,10.80
2022-10-13T08:34:25.571Z,10.80
2022-10-13T08:36:56.139Z,10.90
2022-10-13T08:39:24.320Z,10.90
2022-10-13T08:41:52.150Z,11.00
2022-10-13T08:45:16.054Z,10.90
2022-10-13T08:48:01.118Z,11.00
2022-10-13T08:50:33.932Z,11.00
2022-10-13T08:53:02.961Z,11.20
2022-10-13T08:55:46.331Z,11.30
2022-10-13T08:58:23.223Z,11.40
2022-10-13T09:01:23.700Z,11.50
2022-10-13T09:03:56.416Z,11.40
2022-10-13T09:06:28.822Z,11.20
2022-10-13T09:09:01.658Z,11.10
2022-10-13T09:11:33.602Z,11.10
2022-10-13T09:14:14.367Z,11.10
2022-10-13T09:16:44.793Z,11.10
2022-10-13T09:19:36.243Z,11.10
2022-10-13T09:22:24.543Z,11.20
2022-10-13T09:25:22.467Z,11.30
2022-10-13T09:27:53.829Z,11.60
2022-10-13T09:30:44.683Z,11.60
2022-10-13T09:33:12.222Z,11.70
2022-10-13T09:35:50.591Z,11.80
2022-10-13T09:38:21.639Z,11.90
2022-10-13T09:41:10.560Z,12.10
2022-10-13T09:44:08.041Z,12.10
2022-10-13T09:46:49.920Z,12.20
2022-10-13T09:49:40.594Z,12.40
2022-10-13T09:52:13.497Z,12.60
2022-10-13T09:54:40.325Z,12.60
2022-10-13T09:57:31.445Z,12.70
2022-10-13T10:00:15.929Z,12.80
2022-10-13T10:02:58.635Z,12.90
2022-10-13T10:05:55.659Z,13.00
2022-10-13T10:09:03.233Z,13.20
2022-10-13T10:11:34.766Z,13.40
2022-10-13T10:14:25.163Z,13.60
2022-10-13T10:17:35.255Z,13.80
2022-10-13T10:20:47.171Z,13.80
2022-10-13T10:23:32.357Z,13.90
2022-10-13T10:26:23.039Z,14.30
2022-10-13T10:29:24.788Z,14.40
2022-10-13T10:32:29.357Z,14.40
2022-10-13T10:35:34.659Z,14.40
2022-10-13T10:38:35.822Z,14.50
2022-10-13T10:41:13.323Z,14.70
2022-10-13T10:43:53.722Z,14.70
2022-10-13T10:46:28.762Z,14.90
2022-10-13T10:49:00.702Z,15.00
2022-10-13T10:51:36.742Z,14.80
2022-10-13T10:54:32.075Z,14.80
2022-10-13T10:57:10.953Z,14.90
2022-10-13T11:00:01.792Z,15.00
2022-10-13T11:02:45.980Z,15.00
2022-10-13T11:05:13.991Z,15.00
2022-10-13T11:07:43.688Z,15.10
2022-10-13T11:10:13.311Z,15.30
2022-10-13T11:12:52.437Z,15.00
2022-10-13T11:15:23.425Z,14.50
2022-10-13T11:17:50.773Z,14.20
2022-10-13T11:20:20.245Z,14.10
2022-10-13T11:22:59.380Z,14.10
2022-10-13T11:25:41.910Z,14.00
2022-10-13T11:28:21.092Z,13.90
2022-10-13T11:31:25.097Z,13.90
2022-10-13T11:33:56.239Z,14.00
2022-10-13T11:36:57.046Z,14.00
2022-10-13T11:39:39.115Z,14.10
2022-10-13T11:42:12.193Z,14.30
2022-10-13T11:44:59.870Z,14.40
2022-10-13T11:48:16.061Z,14.30
2022-10-13T11:51:09.500Z,14.40
2022-10-13T11:53:55.723Z,14.60
2022-10-13T11:56:48.260Z,14.60
2022-10-13T11:59:25.722Z,14.70
2022-10-13T12:02:19.190Z,14.70
2022-10-13T12:05:00.641Z,14.70
2022-10-13T12:07:36.445Z,14.80
2022-10-13T12:10:08.039Z,14.80
2022-10-13T12:12:35.296Z,14.70
2022-10-13T12:15:05.921Z,14.70
2022-10-13T12:17:41.068Z,14.70
2022-10-13T12:20:28.554Z,14.70
2022-10-13T12:22:56.783Z,14.70
2022-10-13T12:25:29.874Z,14.70
2022-10-13T12:28:00.595Z,14.60
2022-10-13T12:30:37.136Z,14.60
2022-10-13T12:33:20.853Z,14.50
2022-10-13T12:35:47.793Z,14.40
2022-10-13T12:38:20.053Z,14.40
2022-10-13T12:40:52.140Z,14.30
2022-10-13T12:43:25.139Z,14.50
2022-10-13T12:45:52.162Z,14.70
2022-10-13T12:48:34.480Z,14.90
2022-10-13T12:51:17.752Z,15.00
2022-10-13T12:53:46.038Z,15.30
2022-10-13T12:56:29.441Z,15.50
2022-10-13T12:58:57.308Z,15.50
2022-10-13T13:01:24.041Z,15.60
2022-10-13T13:04:16.071Z,15.60
2022-10-13T13:06:54.579Z,15.60
2022-10-13T13:09:34.239Z,15.70
2022-10-13T13:12:28.860Z,15.60
2022-10-13T13:14:57.093Z,15.50
2022-10-13T13:20:33.038Z,15.30
2022-10-13T13:23:00.889Z,15.20
2022-10-13T13:25:28.076Z,15.10
2022-10-13T13:27:55.116Z,15.00
2022-10-13T13:30:24.341Z,14.90
2022-10-13T13:32:51.666Z,14.80
2022-10-13T13:35:18.889Z,14.70
2022-10-13T13:37:51.033Z,14.70
2022-10-13T13:40:24.218Z,14.70
2022-10-13T13:42:51.562Z,14.70
2022-10-13T13:45:22.964Z,14.60
2022-10-13T13:47:50.079Z,14.60
2022-10-13T13:50:26.561Z,14.60
2022-10-13T13:52:53.369Z,14.60
2022-10-13T13:55:20.209Z,14.70
2022-10-13T13:57:47.054Z,14.70
2022-10-13T14:00:16.381Z,14.70
2022-10-13T14:02:43.973Z,14.70
2022-10-13T14:05:12.327Z,14.60
2022-10-13T14:07:40.046Z,14.50
2022-10-13T14:10:09.170Z,14.50
2022-10-13T14:12:36.010Z,14.40
2022-10-13T14:15:03.426Z,14.40
2022-10-13T14:17:30.427Z,14.30
2022-10-13T14:19:57.317Z,14.20
2022-10-13T14:22:24.490Z,14.10
2022-10-13T14:24:51.685Z,14.00
2022-10-13T14:27:18.657Z,13.90
2022-10-13T14:29:45.478Z,13.70
2022-10-13T14:32:12.626Z,13.70
2022-10-13T14:34:39.535Z,13.50
2022-10-13T14:37:06.601Z,13.50
2022-10-13T14:39:33.749Z,13.50
2022-10-13T14:42:00.708Z,13.50
2022-10-13T14:44:27.509Z,13.40
2022-10-13T14:46:54.354Z,13.40
2022-10-13T14:49:21.434Z,13.40
2022-10-13T14:51:48.248Z,13.40
2022-10-13T14:54:15.062Z,13.40
2022-10-13T14:56:41.856Z,13.50
2022-10-13T14:59:11.591Z,13.50
2022-10-13T15:01:41.405Z,13.50
2022-10-13T15:04:08.953Z,13.50
2022-10-13T15:06:39.198Z,13.60
2022-10-13T15:11:36.739Z,13.50
2022-10-13T15:14:03.719Z,13.50
2022-10-13T15:16:36.923Z,13.40
2022-10-13T15:19:04.593Z,13.50
2022-10-13T15:21:31.472Z,13.40
2022-10-13T15:23:58.338Z,13.40
2022-10-13T15:26:25.126Z,13.40
2022-10-13T15:28:53.839Z,13.50
2022-10-13T15:31:22.342Z,13.60
2022-10-13T15:33:52.302Z,13.50
2022-10-13T15:36:20.896Z,13.50
2022-10-13T15:38:48.563Z,13.50
2022-10-13T15:41:16.173Z,13.40
2022-10-13T15:43:43.333Z,13.40
2022-10-13T15:46:21.324Z,13.40
2022-10-13T15:48:53.336Z,13.40
2022-10-13T15:51:24.259Z,13.40
2022-10-13T15:53:51.157Z,13.30
2022-10-13T15:56:18.499Z,13.30
2022-10-13T15:58:45.630Z,13.30
2022-10-13T16:01:14.311Z,13.30
2022-10-13T16:03:42.168Z,13.30
2022-10-13T16:06:13.597Z,13.20
2022-10-13T16:08:45.830Z,13.20
2022-10-13T16:11:18.500Z,13.20
2022-10-13T16:13:50.261Z,13.20
2022-10-13T16:16:18.301Z,13.20
2022-10-13T16:18:46.227Z,13.20
2022-10-13T16:21:26.011Z,13.30
2022-10-13T16:23:53.478Z,13.30
2022-10-13T16:26:20.918Z,13.20
2022-10-13T16:28:48.087Z,13.20
2022-10-13T16:31:17.037Z,13.20
2022-10-13T16:33:45.299Z,13.20
2022-10-13T16:36:15.946Z,13.20
2022-10-13T16:38:44.693Z,13.10
2022-10-13T16:41:17.639Z,13.20
2022-10-13T16:43:46.204Z,13.10
2022-10-13T16:46:16.514Z,13.10
2022-10-13T16:48:45.327Z,13.10
2022-10-13T16:51:19.376Z,13.10
2022-10-13T16:54:04.841Z,13.10
2022-10-13T16:56:31.798Z,13.00
2022-10-13T16:59:02.623Z,13.00
2022-10-13T17:01:30.806Z,13.00
2022-10-13T17:03:59.392Z,13.00
2022-10-13T17:06:28.737Z,12.90
2022-10-13T17:09:00.434Z,13.00
2022-10-13T17:11:30.752Z,12.90
2022-10-13T17:13:59.445Z,12.90
2022-10-13T17:16:27.121Z,12.90
2022-10-13T17:18:55.076Z,12.90
2022-10-13T17:21:22.206Z,12.90
2022-10-13T17:23:49.621Z,12.90
2022-10-13T17:26:18.322Z,12.90
2022-10-13T17:28:45.447Z,12.90
2022-10-13T17:31:20.046Z,13.00
2022-10-13T17:33:48.449Z,12.90
2022-10-13T17:36:25.302Z,12.90
2022-10-13T17:38:55.112Z,12.90
2022-10-13T17:41:23.554Z,12.90
2022-10-13T17:43:52.234Z,12.90
2022-10-13T17:46:41.064Z,12.90
2022-10-13T17:49:11.546Z,12.90
2022-10-13T17:51:42.785Z,12.90
2022-10-13T17:54:15.584Z,12.90
2022-10-13T17:56:43.915Z,12.90
2022-10-13T17:59:10.821Z,12.90
2022-10-13T18:01:38.157Z,12.90
2022-10-13T18:04:18.678Z,12.90
2022-10-13T18:06:46.096Z,12.90
2022-10-13T18:09:23.187Z,12.90
2022-10-13T18:11:51.583Z,12.90
2022-10-13T18:14:21.453Z,12.90
2022-10-13T18:16:49.784Z,12.90
2022-10-13T18:19:16.719Z,12.90
2022-10-13T18:21:43.779Z,12.90
2022-10-13T18:24:11.652Z,12.90
2022-10-13T18:26:39.193Z,12.90
2022-10-13T18:29:09.055Z,12.90
2022-10-13T18:31:38.949Z,12.90
2022-10-13T18:34:11.483Z,12.90
2022-10-13T18:36:47.297Z,12.90
2022-10-13T18:39:18.433Z,12.90
2022-10-13T18:41:46.583Z,12.90
2022-10-13T18:44:14.587Z,12.90
2022-10-13T18:46:42.541Z,13.00
2022-10-13T18:49:14.001Z,13.00
2022-10-13T18:51:41.540Z,12.90
2022-10-13T18:54:08.849Z,13.00
2022-10-13T18:56:37.296Z,13.00
2022-10-13T18:59:06.214Z,13.00
2022-10-13T19:01:35.396Z,12.90
2022-10-13T19:04:02.401Z,12.80
2022-10-13T19:06:32.213Z,12.90
2022-10-13T19:09:06.914Z,12.90
2022-10-13T19:11:34.782Z,12.80
2022-10-13T19:14:02.832Z,12.80
2022-10-13T19:16:32.171Z,12.70
2022-10-13T19:18:59.018Z,12.70
2022-10-13T19:21:26.327Z,12.70
2022-10-13T19:23:53.519Z,12.70
2022-10-13T19:26:26.715Z,12.70
2022-10-13T19:28:57.051Z,12.70
2022-10-13T19:31:27.467Z,12.70
2022-10-13T19:33:55.361Z,12.70
2022-10-13T19:36:34.257Z,12.70
2022-10-13T19:39:04.793Z,12.80
2022-10-13T19:41:32.549Z,12.80
2022-10-13T19:44:00.075Z,12.80
2022-10-13T19:46:26.949Z,12.80
2022-10-13T19:48:54.179Z,12.80
2022-10-13T19:51:21.035Z,12.80
2022-10-13T19:53:47.823Z,12.80
2022-10-13T19:56:27.953Z,12.80
2022-10-13T19:58:55.218Z,12.80
2022-10-13T20:01:22.675Z,12.80
2022-10-13T20:03:50.762Z,12.80
2022-10-13T20:06:18.792Z,12.80
2022-10-13T20:08:45.760Z,12.80
2022-10-13T20:11:22.991Z,12.90
2022-10-13T20:13:51.426Z,12.80
2022-10-13T20:16:23.024Z,12.80
2022-10-13T20:19:02.180Z,12.80
2022-10-13T20:21:29.531Z,12.90
2022-10-13T20:23:57.393Z,12.90
2022-10-13T20:26:25.036Z,12.90
2022-10-13T20:28:54.457Z,12.90
2022-10-13T20:31:22.975Z,12.90
2022-10-13T20:33:58.196Z,12.90
2022-10-13T20:36:27.969Z,12.90
2022-10-13T20:38:55.314Z,12.90
2022-10-13T20:41:28.851Z,13.00
2022-10-13T20:43:59.080Z,13.00
2022-10-13T20:46:27.190Z,13.00
2022-10-13T20:49:11.883Z,12.90
2022-10-13T20:51:40.908Z,12.90
2022-10-13T20:54:08.048Z,12.90
2022-10-13T20:56:35.802Z,12.90
2022-10-13T20:59:05.620Z,13.00
2022-10-13T21:01:33.217Z,12.90
2022-10-13T21:04:00.410Z,12.90
2022-10-13T21:06:27.732Z,12.90
2022-10-13T21:08:54.716Z,12.90
2022-10-13T21:11:23.677Z,12.90
2022-10-13T21:13:52.651Z,12.90
2022-10-13T21:16:24.086Z,12.80
2022-10-13T21:18:51.826Z,12.80
2022-10-13T21:21:25.397Z,12.90
2022-10-13T21:23:57.781Z,12.90
2022-10-13T21:26:27.325Z,12.90
2022-10-13T21:28:54.387Z,12.90
2022-10-13T21:31:23.368Z,12.90
2022-10-13T21:33:50.944Z,12.90
2022-10-13T21:36:30.807Z,12.80
2022-10-13T21:39:01.804Z,12.80
2022-10-13T21:41:29.373Z,12.90
2022-10-13T21:43:56.630Z,12.90
2022-10-13T21:46:29.781Z,12.90
2022-10-13T21:48:59.824Z,12.90
2022-10-13T21:51:46.230Z,12.90
2022-10-13T21:54:13.790Z,12.90
2022-10-13T21:56:42.233Z,12.90
2022-10-13T21:59:11.967Z,12.80
2022-10-13T22:01:39.425Z,12.90
2022-10-13T22:04:06.369Z,12.90
2022-10-13T22:06:34.309Z,12.90
2022-10-13T22:09:03.711Z,12.90
2022-10-13T22:11:33.429Z,12.90
2022-10-13T22:14:00.962Z,12.90
2022-10-13T22:16:33.136Z,12.90
2022-10-13T22:19:00.318Z,12.90
2022-10-13T22:21:31.264Z,12.90
2022-10-13T22:24:01.453Z,12.90
2022-10-13T22:26:31.775Z,12.80
2022-10-13T22:29:00.926Z,12.80
2022-10-13T22:31:28.420Z,12.80
2022-10-13T22:33:55.592Z,12.80
2022-10-13T22:36:25.274Z,12.80
2022-10-13T22:38:57.211Z,12.80
2022-10-13T22:41:24.448Z,12.80
2022-10-13T22:43:56.836Z,12.80
2022-10-13T22:46:27.506Z,12.80
2022-10-13T22:48:56.235Z,12.90
2022-10-13T22:51:26.224Z,12.90
2022-10-13T22:53:53.730Z,12.90
2022-10-13T22:56:26.804Z,12.90
2022-10-13T22:59:14.375Z,12.80
2022-10-13T23:01:41.430Z,12.80
2022-10-13T23:04:08.349Z,12.80
2022-10-13T23:06:35.708Z,12.80
2022-10-13T23:09:06.476Z,12.80
2022-10-13T23:11:34.242Z,12.80
2022-10-13T23:14:02.510Z,12.80
2022-10-13T23:16:29.933Z,12.80
2022-10-13T23:18:56.891Z,12.70
2022-10-13T23:21:28.071Z,12.70
2022-10-13T23:24:00.875Z,12.80
2022-10-13T23:26:28.210Z,12.80
2022-10-13T23:28:57.046Z,12.80
2022-10-13T23:31:25.150Z,12.80
2022-10-13T23:33:52.972Z,12.80
2022-10-13T23:36:26.350Z,12.80
2022-10-13T23:39:07.149Z,12.80
2022-10-13T23:41:34.829Z,12.90
2022-10-13T23:44:01.715Z,12.80
2022-10-13T23:46:28.555Z,12.80
2022-10-13T23:48:56.019Z,12.80
2022-10-13T23:51:24.914Z,12.80
2022-10-13T23:53:52.878Z,12.70
2022-10-13T23:56:20.128Z,12.80
2022-10-13T23:58:47.983Z,12.70
